createdAt,value
2023-03-13T00:00:31.115Z,10.10
2023-03-13T00:02:58.616Z,10.25
2023-03-13T00:05:26.065Z,10.35
2023-03-13T00:07:53.493Z,12.98
2023-03-13T00:10:20.986Z,12.73
2023-03-13T00:12:48.413Z,10.10
2023-03-13T00:15:15.931Z,10.05
2023-03-13T00:17:43.395Z,10.02
2023-03-13T00:20:11.182Z,11.07
2023-03-13T00:22:38.591Z,10.48
2023-03-13T00:25:06.154Z,9.43
2023-03-13T00:27:34.663Z,10.13
2023-03-13T00:30:02.157Z,9.90
2023-03-13T00:32:29.720Z,10.18
2023-03-13T00:34:57.218Z,10.05
2023-03-13T00:37:25.581Z,10.27
2023-03-13T00:39:54.878Z,9.68
2023-03-13T00:42:23.198Z,10.15
2023-03-13T00:44:50.624Z,9.57
2023-03-13T00:47:18.070Z,9.70
2023-03-13T00:49:45.559Z,10.52
2023-03-13T00:52:13.942Z,10.32
2023-03-13T00:54:41.592Z,9.85
2023-03-13T00:57:09.091Z,10.70
2023-03-13T00:59:36.748Z,10.02
2023-03-13T01:02:04.206Z,10.55
2023-03-13T01:04:33.208Z,9.73
2023-03-13T01:07:00.742Z,10.70
2023-03-13T01:09:28.246Z,10.82
2023-03-13T01:11:55.800Z,9.77
2023-03-13T01:14:23.276Z,10.60
2023-03-13T01:16:51.400Z,9.60
2023-03-13T01:19:19.091Z,10.00
2023-03-13T01:21:47.034Z,10.02
2023-03-13T01:24:15.381Z,10.85
2023-03-13T01:26:44.211Z,10.88
2023-03-13T01:29:11.686Z,10.35
2023-03-13T01:31:39.997Z,10.45
2023-03-13T01:34:08.892Z,11.43
2023-03-13T01:36:37.864Z,10.85
2023-03-13T01:39:05.947Z,11.85
2023-03-13T01:41:33.396Z,12.05
2023-03-13T01:44:00.906Z,11.77
2023-03-13T01:46:37.166Z,10.95
2023-03-13T01:49:29.506Z,11.55
2023-03-13T01:52:15.683Z,11.93
2023-03-13T01:55:09.081Z,11.55
2023-03-13T01:57:41.017Z,11.88
2023-03-13T02:00:12.324Z,12.15
2023-03-13T02:02:45.443Z,11.73
2023-03-13T02:05:13.439Z,12.73
2023-03-13T02:07:47.121Z,12.20
2023-03-13T02:10:16.136Z,12.68
2023-03-13T02:12:43.555Z,13.13
2023-03-13T02:15:14.136Z,12.25
2023-03-13T02:17:42.534Z,12.93
2023-03-13T02:20:10.735Z,12.82
2023-03-13T02:22:53.464Z,13.90
2023-03-13T02:25:39.677Z,13.55
2023-03-13T02:28:07.375Z,15.23
2023-03-13T02:30:37.100Z,17.80
2023-03-13T02:33:05.335Z,17.88
2023-03-13T02:35:36.480Z,16.58
2023-03-13T02:38:11.266Z,16.75
2023-03-13T02:40:40.293Z,15.65
2023-03-13T02:43:11.526Z,16.40
2023-03-13T02:45:40.492Z,15.85
2023-03-13T02:48:10.353Z,17.80
2023-03-13T02:50:38.416Z,17.67
2023-03-13T02:53:08.333Z,17.05
2023-03-13T02:55:37.981Z,17.05
2023-03-13T02:58:05.707Z,16.13
2023-03-13T03:00:36.569Z,15.57
2023-03-13T03:03:04.021Z,13.90
2023-03-13T03:05:31.499Z,13.68
2023-03-13T03:07:59.362Z,13.32
2023-03-13T03:10:29.475Z,13.57
2023-03-13T03:12:57.010Z,13.15
2023-03-13T03:15:24.384Z,11.90
2023-03-13T03:17:52.974Z,13.82
2023-03-13T03:20:20.449Z,12.15
2023-03-13T03:22:48.219Z,12.15
2023-03-13T03:25:15.812Z,12.35
2023-03-13T03:27:43.359Z,11.40
2023-03-13T03:30:11.376Z,11.00
2023-03-13T03:32:39.760Z,10.82
2023-03-13T03:35:07.497Z,10.85
2023-03-13T03:37:35.185Z,11.30
2023-03-13T03:40:06.622Z,10.45
2023-03-13T03:42:34.462Z,10.55
2023-03-13T03:45:02.342Z,10.73
2023-03-13T03:47:29.984Z,10.70
2023-03-13T03:49:57.689Z,9.75
2023-03-13T03:52:25.310Z,10.60
2023-03-13T03:54:52.838Z,10.90
2023-03-13T03:57:21.306Z,11.15
2023-03-13T03:59:49.185Z,12.30
2023-03-13T04:02:17.759Z,11.43
2023-03-13T04:04:45.924Z,11.30
2023-03-13T04:07:27.650Z,11.85
2023-03-13T04:09:55.193Z,11.82
2023-03-13T04:12:28.858Z,11.85
2023-03-13T04:14:57.722Z,11.73
2023-03-13T04:17:25.243Z,11.18
2023-03-13T04:19:52.783Z,11.38
2023-03-13T04:22:20.487Z,10.98
2023-03-13T04:24:52.242Z,10.90
2023-03-13T04:27:21.671Z,12.02
2023-03-13T04:29:51.092Z,10.65
2023-03-13T04:32:36.990Z,10.88
2023-03-13T04:35:19.500Z,10.95
2023-03-13T04:40:55.966Z,11.75
2023-03-13T04:43:58.377Z,10.63
2023-03-13T04:46:54.852Z,10.75
2023-03-13T04:49:45.406Z,11.55
2023-03-13T04:52:35.881Z,11.73
2023-03-13T04:55:29.253Z,11.00
2023-03-13T04:58:20.863Z,11.90
2023-03-13T05:01:11.116Z,11.00
2023-03-13T05:04:05.188Z,11.27
2023-03-13T05:06:52.912Z,13.45
2023-03-13T05:09:40.613Z,14.73
2023-03-13T05:12:30.777Z,14.30
2023-03-13T05:15:05.218Z,12.45
2023-03-13T05:17:42.585Z,12.35
2023-03-13T05:20:33.122Z,10.68
2023-03-13T05:23:12.339Z,11.70
2023-03-13T05:25:58.478Z,10.82
2023-03-13T05:28:31.862Z,10.75
2023-03-13T05:31:15.184Z,10.80
2023-03-13T05:34:05.305Z,10.52
2023-03-13T05:36:55.830Z,11.18
2023-03-13T05:39:54.519Z,9.60
2023-03-13T05:42:45.659Z,9.43
2023-03-13T05:45:28.042Z,9.43
2023-03-13T05:47:55.517Z,10.20
2023-03-13T05:50:58.039Z,10.23
2023-03-13T05:53:34.589Z,9.38
2023-03-13T05:56:04.718Z,10.07
2023-03-13T05:59:01.679Z,10.50
2023-03-13T06:01:48.047Z,10.50
2023-03-13T06:04:25.134Z,9.90
2023-03-13T06:06:52.851Z,9.40
2023-03-13T06:09:20.982Z,9.15
2023-03-13T06:11:49.333Z,9.68
2023-03-13T06:14:17.218Z,9.10
2023-03-13T06:16:55.794Z,10.15
2023-03-13T06:19:24.569Z,10.50
2023-03-13T06:21:52.403Z,9.95
2023-03-13T06:24:19.869Z,9.15
2023-03-13T06:26:49.781Z,9.45
2023-03-13T06:29:17.515Z,8.85
2023-03-13T06:31:45.047Z,8.43
2023-03-13T06:34:13.449Z,8.63
2023-03-13T06:36:41.038Z,8.15
2023-03-13T06:39:08.511Z,8.10
2023-03-13T06:41:36.272Z,7.95
2023-03-13T06:44:03.877Z,7.50
2023-03-13T06:46:31.583Z,7.65
2023-03-13T06:49:00.861Z,7.20
2023-03-13T06:51:28.282Z,7.90
2023-03-13T06:53:55.793Z,7.95
2023-03-13T06:56:23.357Z,7.30
2023-03-13T06:58:51.143Z,7.15
2023-03-13T07:01:18.704Z,6.82
2023-03-13T07:03:47.695Z,8.13
2023-03-13T07:06:15.423Z,8.98
2023-03-13T07:08:44.232Z,7.53
2023-03-13T07:11:13.233Z,7.47
2023-03-13T07:13:40.796Z,7.50
2023-03-13T07:16:10.240Z,7.95
2023-03-13T07:18:38.309Z,7.10
2023-03-13T07:21:06.216Z,7.10
2023-03-13T07:23:34.866Z,7.60
2023-03-13T07:26:06.202Z,7.20
2023-03-13T07:28:35.592Z,7.28
2023-03-13T07:31:04.987Z,7.00
2023-03-13T07:33:32.666Z,7.38
2023-03-13T07:36:00.210Z,8.02
2023-03-13T07:38:27.719Z,8.55
2023-03-13T07:40:56.603Z,8.43
2023-03-13T07:43:25.011Z,8.63
2023-03-13T07:45:52.706Z,8.82
2023-03-13T07:48:20.755Z,9.43
2023-03-13T07:50:48.519Z,9.45
2023-03-13T07:53:21.208Z,9.50
2023-03-13T07:55:54.608Z,8.98
2023-03-13T07:58:22.111Z,8.70
2023-03-13T08:00:49.693Z,8.70
2023-03-13T08:03:17.094Z,8.90
2023-03-13T08:05:44.630Z,8.55
2023-03-13T08:08:12.338Z,7.10
2023-03-13T08:10:39.959Z,7.90
2023-03-13T08:13:07.478Z,7.80
2023-03-13T08:15:34.926Z,8.35
2023-03-13T08:18:02.403Z,7.25
2023-03-13T08:20:29.961Z,7.50
2023-03-13T08:22:58.041Z,7.68
2023-03-13T08:25:25.512Z,7.85
2023-03-13T08:27:53.082Z,8.05
2023-03-13T08:30:20.578Z,7.70
2023-03-13T08:32:47.989Z,8.60
2023-03-13T08:35:15.548Z,7.80
2023-03-13T08:37:43.483Z,7.68
2023-03-13T08:40:11.523Z,8.13
2023-03-13T08:42:40.373Z,8.73
2023-03-13T08:45:08.383Z,7.90
2023-03-13T08:47:35.926Z,7.80
2023-03-13T08:50:03.845Z,7.90
2023-03-13T08:52:31.458Z,8.88
2023-03-13T08:54:58.848Z,7.40
2023-03-13T08:57:26.231Z,7.45
2023-03-13T08:59:53.760Z,7.32
2023-03-13T09:02:21.271Z,6.97
2023-03-13T09:04:48.963Z,7.00
2023-03-13T09:07:16.765Z,7.53
2023-03-13T09:09:44.375Z,7.05
2023-03-13T09:12:24.539Z,6.63
2023-03-13T09:14:57.308Z,6.93
2023-03-13T09:17:25.970Z,6.50
2023-03-13T09:20:00.016Z,7.05
2023-03-13T09:22:28.252Z,6.70
2023-03-13T09:24:55.700Z,6.60
2023-03-13T09:27:23.180Z,6.90
2023-03-13T09:29:50.619Z,7.20
2023-03-13T09:32:20.515Z,6.97
2023-03-13T09:34:48.295Z,7.20
2023-03-13T09:37:15.895Z,6.25
2023-03-13T09:39:43.428Z,6.78
2023-03-13T09:42:17.326Z,7.35
2023-03-13T09:44:56.976Z,6.85
2023-03-13T09:47:30.808Z,6.50
2023-03-13T09:50:01.838Z,6.90
2023-03-13T09:52:36.386Z,6.22
2023-03-13T09:55:06.803Z,6.38
2023-03-13T09:57:37.396Z,5.82
2023-03-13T10:00:07.092Z,6.47
2023-03-13T10:02:38.265Z,6.45
2023-03-13T10:05:09.033Z,6.45
2023-03-13T10:07:37.106Z,6.32
2023-03-13T10:10:07.781Z,6.07
2023-03-13T10:12:42.460Z,5.95
2023-03-13T10:15:28.320Z,5.63
2023-03-13T10:17:55.937Z,6.13
2023-03-13T10:20:28.433Z,5.80
2023-03-13T10:23:04.069Z,5.57
2023-03-13T10:25:33.951Z,5.18
2023-03-13T10:28:02.020Z,5.88
2023-03-13T10:30:35.549Z,5.28
2023-03-13T10:33:09.127Z,5.00
2023-03-13T10:35:38.605Z,5.13
2023-03-13T10:38:10.038Z,5.55
2023-03-13T10:40:37.733Z,5.20
2023-03-13T10:43:05.203Z,5.53
2023-03-13T10:45:35.561Z,4.78
2023-03-13T10:48:14.135Z,4.85
2023-03-13T10:50:46.237Z,4.68
2023-03-13T10:53:31.757Z,5.13
2023-03-13T10:58:36.198Z,5.45
2023-03-13T11:01:24.329Z,4.50
2023-03-13T11:03:53.200Z,4.43
2023-03-13T11:06:25.916Z,4.80
2023-03-13T11:09:13.655Z,5.22
2023-03-13T11:11:48.806Z,5.35
2023-03-13T11:16:47.719Z,4.53
2023-03-13T11:19:15.209Z,4.25
2023-03-13T11:21:45.780Z,4.00
2023-03-13T11:24:16.473Z,4.13
2023-03-13T11:27:02.031Z,3.65
2023-03-13T11:29:34.684Z,3.65
2023-03-13T11:32:07.854Z,3.92
2023-03-13T11:34:40.954Z,3.90
2023-03-13T11:37:16.116Z,4.28
2023-03-13T11:42:11.336Z,4.00
2023-03-13T11:44:56.000Z,4.35
2023-03-13T11:47:34.940Z,4.40
2023-03-13T11:50:14.667Z,3.72
2023-03-13T11:53:00.936Z,3.80
2023-03-13T11:55:34.732Z,3.70
2023-03-13T11:58:05.264Z,3.95
2023-03-13T12:00:32.722Z,4.05
2023-03-13T12:03:05.924Z,4.40
2023-03-13T12:05:43.491Z,4.38
2023-03-13T12:08:13.672Z,3.80
2023-03-13T12:10:44.764Z,4.03
2023-03-13T12:13:21.112Z,4.30
2023-03-13T12:15:50.390Z,5.97
2023-03-13T12:18:20.790Z,6.85
2023-03-13T12:20:59.506Z,3.97
2023-03-13T12:23:30.127Z,3.80
2023-03-13T12:26:01.339Z,3.78
2023-03-13T12:28:28.857Z,3.70
2023-03-13T12:31:05.784Z,3.50
2023-03-13T12:33:36.310Z,3.47
2023-03-13T12:36:08.501Z,3.40
2023-03-13T12:38:41.669Z,3.88
2023-03-13T12:41:14.020Z,4.03
2023-03-13T12:43:46.378Z,3.78
2023-03-13T12:46:20.139Z,3.45
2023-03-13T12:48:47.856Z,4.35
2023-03-13T12:51:44.570Z,4.20
2023-03-13T12:54:12.140Z,3.65
2023-03-13T12:56:58.169Z,3.70
2023-03-13T12:59:34.301Z,3.78
2023-03-13T13:02:03.689Z,3.75
2023-03-13T13:04:42.429Z,3.90
2023-03-13T13:07:26.812Z,3.90
2023-03-13T13:10:03.357Z,3.83
2023-03-13T13:12:30.929Z,3.83
2023-03-13T13:15:00.119Z,5.57
2023-03-13T13:17:30.599Z,4.25
2023-03-13T13:19:58.120Z,4.10
2023-03-13T13:22:37.877Z,3.53
2023-03-13T13:25:05.403Z,3.25
2023-03-13T13:27:33.124Z,3.42
2023-03-13T13:30:01.436Z,2.92
2023-03-13T13:32:32.020Z,3.50
2023-03-13T13:35:02.673Z,3.75
2023-03-13T13:37:30.284Z,3.67
2023-03-13T13:40:11.093Z,3.63
2023-03-13T13:42:43.649Z,3.65
2023-03-13T13:45:17.025Z,3.70
2023-03-13T13:47:46.015Z,3.90
2023-03-13T13:50:19.470Z,3.63
2023-03-13T13:52:48.354Z,3.90
2023-03-13T13:55:27.770Z,3.83
2023-03-13T13:58:05.862Z,3.58
2023-03-13T14:00:47.232Z,3.50
2023-03-13T14:03:19.868Z,3.72
2023-03-13T14:05:48.651Z,3.95
2023-03-13T14:08:22.559Z,3.83
2023-03-13T14:10:53.375Z,3.60
2023-03-13T14:13:21.591Z,3.53
2023-03-13T14:15:49.822Z,3.60
2023-03-13T14:18:30.594Z,3.90
2023-03-13T14:21:03.133Z,3.90
2023-03-13T14:23:43.902Z,3.90
2023-03-13T14:26:11.484Z,3.60
2023-03-13T14:28:43.408Z,3.70
2023-03-13T14:31:12.266Z,3.78
2023-03-13T14:33:39.871Z,3.80
2023-03-13T14:36:07.738Z,3.75
2023-03-13T14:38:35.461Z,3.80
2023-03-13T14:41:03.020Z,3.58
2023-03-13T14:43:30.812Z,3.30
2023-03-13T14:45:58.273Z,3.85
2023-03-13T14:48:32.032Z,3.85
2023-03-13T14:51:15.552Z,3.50
2023-03-13T14:54:00.320Z,3.85
2023-03-13T14:56:35.447Z,4.93
2023-03-13T15:01:30.926Z,3.65
2023-03-13T15:03:58.428Z,3.90
2023-03-13T15:06:26.211Z,3.85
2023-03-13T15:09:11.770Z,5.18
2023-03-13T15:11:43.646Z,4.65
2023-03-13T15:14:29.715Z,4.65
2023-03-13T15:16:57.131Z,5.00
2023-03-13T15:19:24.544Z,4.38
2023-03-13T15:21:52.630Z,4.20
2023-03-13T15:24:20.008Z,4.22
2023-03-13T15:26:49.149Z,4.10
2023-03-13T15:29:18.362Z,4.10
2023-03-13T15:31:45.897Z,4.53
2023-03-13T15:34:14.847Z,3.83
2023-03-13T15:36:42.649Z,3.75
2023-03-13T15:39:17.108Z,3.65
2023-03-13T15:41:44.585Z,3.83
2023-03-13T15:44:12.017Z,4.03
2023-03-13T15:46:39.472Z,3.88
2023-03-13T15:49:11.385Z,4.65
2023-03-13T15:51:38.937Z,4.78
2023-03-13T15:54:06.370Z,6.15
2023-03-13T15:56:36.273Z,6.13
2023-03-13T15:59:10.208Z,4.85
2023-03-13T16:01:38.042Z,4.68
2023-03-13T16:04:05.726Z,4.22
2023-03-13T16:06:33.545Z,4.80
2023-03-13T16:09:01.915Z,5.82
2023-03-13T16:11:30.011Z,5.07
2023-03-13T16:13:57.619Z,5.50
2023-03-13T16:16:29.596Z,7.15
2023-03-13T16:18:58.257Z,9.30
2023-03-13T16:21:27.735Z,12.60
2023-03-13T16:23:55.265Z,11.90
2023-03-13T16:26:24.339Z,10.88
2023-03-13T16:28:52.018Z,13.05
2023-03-13T16:31:23.783Z,13.05
2023-03-13T16:33:53.853Z,20.58
2023-03-13T16:36:25.611Z,21.80
2023-03-13T16:38:53.300Z,32.13
2023-03-13T16:41:21.920Z,46.95
2023-03-13T16:43:49.839Z,57.67
2023-03-13T16:46:17.579Z,46.80
2023-03-13T16:48:46.147Z,58.63
2023-03-13T16:51:17.960Z,54.90
2023-03-13T16:53:46.586Z,48.67
2023-03-13T16:56:23.277Z,52.13
2023-03-13T16:58:50.913Z,49.58
2023-03-13T17:01:18.369Z,60.53
2023-03-13T17:03:46.024Z,48.08
2023-03-13T17:06:17.707Z,35.15
2023-03-13T17:08:45.246Z,61.28
2023-03-13T17:11:15.991Z,50.72
2023-03-13T17:13:46.013Z,28.23
2023-03-13T17:16:20.859Z,22.88
2023-03-13T17:18:50.001Z,13.27
2023-03-13T17:21:18.632Z,15.45
2023-03-13T17:23:46.431Z,22.30
2023-03-13T17:26:19.049Z,53.85
2023-03-13T17:28:47.126Z,16.50
2023-03-13T17:31:15.114Z,25.60
2023-03-13T17:33:42.807Z,27.25
2023-03-13T17:36:14.925Z,30.80
2023-03-13T17:38:42.510Z,30.38
2023-03-13T17:41:13.783Z,30.10
2023-03-13T17:43:41.423Z,29.02
2023-03-13T17:46:16.309Z,26.00
2023-03-13T17:48:43.992Z,25.02
2023-03-13T17:51:19.645Z,25.23
2023-03-13T17:53:47.419Z,26.02
2023-03-13T17:56:19.434Z,25.98
2023-03-13T17:58:47.267Z,33.05
2023-03-13T18:01:15.440Z,33.08
2023-03-13T18:03:43.447Z,31.38
2023-03-13T18:06:31.107Z,33.60
2023-03-13T18:08:59.673Z,29.25
2023-03-13T18:11:27.518Z,43.28
2023-03-13T18:13:55.030Z,65.88
2023-03-13T18:16:57.298Z,62.00
2023-03-13T18:19:26.032Z,25.65
2023-03-13T18:21:54.523Z,15.60
2023-03-13T18:24:22.248Z,12.02
2023-03-13T18:26:50.186Z,23.13
2023-03-13T18:29:21.138Z,37.40
2023-03-13T18:31:50.613Z,44.92
2023-03-13T18:34:18.229Z,40.28
2023-03-13T18:36:45.644Z,34.88
2023-03-13T18:39:17.561Z,28.90
2023-03-13T18:41:45.522Z,25.02
2023-03-13T18:44:15.981Z,23.23
2023-03-13T18:46:44.095Z,24.15
2023-03-13T18:49:17.354Z,23.65
2023-03-13T18:51:45.361Z,22.92
2023-03-13T18:54:12.897Z,24.85
2023-03-13T18:56:40.407Z,23.80
2023-03-13T18:59:11.463Z,26.13
2023-03-13T19:01:38.973Z,26.17
2023-03-13T19:04:06.598Z,24.98
2023-03-13T19:06:35.266Z,27.73
2023-03-13T19:09:08.770Z,33.47
2023-03-13T19:11:41.716Z,42.17
2023-03-13T19:14:09.777Z,24.65
2023-03-13T19:16:39.995Z,83.90
2023-03-13T19:19:18.737Z,139.02
2023-03-13T19:21:46.188Z,106.05
2023-03-13T19:24:13.675Z,146.82
2023-03-13T19:26:41.156Z,129.43
2023-03-13T19:29:27.939Z,143.95
2023-03-13T19:31:55.764Z,128.82
2023-03-13T19:34:23.368Z,86.85
2023-03-13T19:36:53.401Z,95.88
2023-03-13T19:39:23.739Z,96.43
2023-03-13T19:41:51.790Z,49.72
2023-03-13T19:44:19.866Z,43.05
2023-03-13T19:46:47.742Z,44.88
2023-03-13T19:49:16.405Z,30.27
2023-03-13T19:51:44.357Z,23.77
2023-03-13T19:54:11.875Z,22.70
2023-03-13T19:56:46.806Z,21.75
2023-03-13T19:59:16.117Z,24.50
2023-03-13T20:01:43.960Z,25.92
2023-03-13T20:04:11.777Z,26.58
2023-03-13T20:06:39.890Z,27.17
2023-03-13T20:09:09.254Z,24.27
2023-03-13T20:11:37.207Z,25.30
2023-03-13T20:14:05.119Z,24.25
2023-03-13T20:16:34.915Z,25.20
2023-03-13T20:19:03.221Z,25.85
2023-03-13T20:21:31.546Z,25.55
2023-03-13T20:23:59.547Z,24.67
2023-03-13T20:26:27.499Z,25.92
2023-03-13T20:28:55.443Z,26.08
2023-03-13T20:31:24.391Z,23.13
2023-03-13T20:33:51.866Z,23.40
2023-03-13T20:36:20.663Z,22.60
2023-03-13T20:38:48.506Z,18.88
2023-03-13T20:41:16.611Z,20.55
2023-03-13T20:43:44.313Z,19.65
2023-03-13T20:46:11.820Z,19.98
2023-03-13T20:48:41.572Z,20.17
2023-03-13T20:51:09.625Z,21.90
2023-03-13T20:53:37.684Z,22.52
2023-03-13T20:56:07.045Z,20.50
2023-03-13T20:58:35.127Z,21.15
2023-03-13T21:01:03.061Z,21.25
2023-03-13T21:03:35.177Z,25.50
2023-03-13T21:06:22.991Z,26.90
2023-03-13T21:08:50.618Z,21.67
2023-03-13T21:11:22.032Z,23.75
2023-03-13T21:13:50.105Z,21.25
2023-03-13T21:16:19.017Z,22.25
2023-03-13T21:18:46.918Z,22.52
2023-03-13T21:21:19.621Z,23.63
2023-03-13T21:23:47.334Z,22.88
2023-03-13T21:26:15.002Z,26.23
2023-03-13T21:28:42.454Z,25.77
2023-03-13T21:31:14.098Z,25.35
2023-03-13T21:33:41.762Z,26.25
2023-03-13T21:36:09.994Z,25.58
2023-03-13T21:38:37.856Z,27.42
2023-03-13T21:41:09.544Z,27.63
2023-03-13T21:43:37.568Z,32.33
2023-03-13T21:46:05.129Z,34.92
2023-03-13T21:48:32.590Z,33.53
2023-03-13T21:51:00.469Z,29.20
2023-03-13T21:53:27.891Z,28.70
2023-03-13T21:55:55.419Z,28.58
2023-03-13T21:58:22.808Z,23.58
2023-03-13T22:00:50.260Z,22.77
2023-03-13T22:03:17.846Z,19.30
2023-03-13T22:05:45.590Z,16.40
2023-03-13T22:08:13.572Z,14.00
2023-03-13T22:10:42.903Z,13.82
2023-03-13T22:13:10.770Z,13.32
2023-03-13T22:15:43.441Z,13.77
2023-03-13T22:18:10.971Z,11.55
2023-03-13T22:20:38.389Z,12.27
2023-03-13T22:23:05.872Z,10.82
2023-03-13T22:25:33.309Z,12.13
2023-03-13T22:28:02.480Z,10.93
2023-03-13T22:30:30.042Z,11.10
2023-03-13T22:32:57.451Z,11.15
2023-03-13T22:35:24.908Z,10.98
2023-03-13T22:37:52.326Z,10.32
2023-03-13T22:40:20.391Z,10.10
2023-03-13T22:42:48.346Z,9.63
2023-03-13T22:45:16.084Z,9.90
2023-03-13T22:47:43.491Z,9.85
2023-03-13T22:50:11.631Z,10.10
2023-03-13T22:52:39.411Z,10.00
2023-03-13T22:55:07.113Z,9.32
2023-03-13T22:57:34.554Z,9.45
2023-03-13T23:00:02.030Z,8.80
2023-03-13T23:02:29.685Z,9.20
2023-03-13T23:04:58.624Z,7.75
2023-03-13T23:07:29.532Z,8.45
2023-03-13T23:09:57.753Z,8.88
2023-03-13T23:12:26.039Z,8.38
2023-03-13T23:14:54.279Z,8.60
2023-03-13T23:17:21.651Z,8.23
2023-03-13T23:19:49.139Z,8.05
2023-03-13T23:22:18.146Z,7.80
2023-03-13T23:24:45.588Z,7.70
2023-03-13T23:27:13.013Z,8.45
2023-03-13T23:29:40.722Z,7.85
2023-03-13T23:32:08.098Z,9.88
2023-03-13T23:34:36.190Z,8.63
2023-03-13T23:37:03.929Z,7.53
2023-03-13T23:39:31.413Z,7.57
2023-03-13T23:41:58.772Z,8.05
2023-03-13T23:44:26.240Z,8.02
2023-03-13T23:46:53.651Z,8.45
2023-03-13T23:49:21.125Z,7.80
2023-03-13T23:51:48.584Z,7.82
2023-03-13T23:54:15.957Z,8.32
2023-03-13T23:56:43.357Z,7.30
2023-03-13T23:59:10.831Z,8.07
